sensor_id;sensor_type;location;lat;lon;timestamp;P1;durP1;ratioP1;P2;durP2;ratioP2
57577;SDS011;43413;-33.790;150.826;2022-11-11T03:10:27;3.72;;;0.63;;
57577;SDS011;43413;-33.790;150.826;2022-11-11T03:12:55;2.58;;;0.70;;
57577;SDS011;43413;-33.790;150.826;2022-11-11T03:15:22;3.25;;;0.47;;
57577;SDS011;43413;-33.790;150.826;2022-11-11T03:17:49;2.88;;;0.65;;
57577;SDS011;43413;-33.790;150.826;2022-11-11T03:20:17;1.40;;;0.57;;
57577;SDS011;43413;-33.790;150.826;2022-11-11T03:23:06;1.58;;;0.57;;
57577;SDS011;43413;-33.790;150.826;2022-11-11T03:25:41;3.35;;;0.80;;
57577;SDS011;43413;-33.790;150.826;2022-11-11T03:28:16;2.53;;;0.60;;
57577;SDS011;43413;-33.790;150.826;2022-11-11T03:30:44;2.88;;;0.80;;
57577;SDS011;43413;-33.790;150.826;2022-11-11T03:33:11;4.72;;;0.85;;
57577;SDS011;43413;-33.790;150.826;2022-11-11T03:35:39;2.30;;;0.75;;
57577;SDS011;43413;-33.790;150.826;2022-11-11T03:38:07;2.63;;;0.80;;
57577;SDS011;43413;-33.790;150.826;2022-11-11T03:40:52;6.85;;;1.08;;
57577;SDS011;43413;-33.790;150.826;2022-11-11T03:43:21;2.80;;;1.10;;
57577;SDS011;43413;-33.790;150.826;2022-11-11T03:45:49;6.20;;;1.40;;
57577;SDS011;43413;-33.790;150.826;2022-11-11T03:48:17;4.07;;;1.40;;
57577;SDS011;43413;-33.790;150.826;2022-11-11T03:50:45;4.32;;;1.52;;
57577;SDS011;43413;-33.790;150.826;2022-11-11T03:53:16;5.70;;;1.63;;
57577;SDS011;43413;-33.790;150.826;2022-11-11T03:55:44;3.45;;;1.30;;
57577;SDS011;43413;-33.790;150.826;2022-11-11T03:58:12;4.22;;;1.30;;
57577;SDS011;43413;-33.790;150.826;2022-11-11T04:00:39;4.63;;;1.50;;
57577;SDS011;43413;-33.790;150.826;2022-11-11T04:03:09;3.97;;;1.40;;
57577;SDS011;43413;-33.790;150.826;2022-11-11T04:05:54;6.97;;;1.20;;
57577;SDS011;43413;-33.790;150.826;2022-11-11T04:08:43;3.65;;;1.05;;
57577;SDS011;43413;-33.790;150.826;2022-11-11T04:11:29;3.28;;;1.10;;
57577;SDS011;43413;-33.790;150.826;2022-11-11T04:13:58;6.05;;;1.10;;
57577;SDS011;43413;-33.790;150.826;2022-11-11T04:16:45;4.10;;;0.93;;
57577;SDS011;43413;-33.790;150.826;2022-11-11T04:19:12;6.45;;;1.15;;
57577;SDS011;43413;-33.790;150.826;2022-11-11T04:21:57;2.42;;;0.90;;
57577;SDS011;43413;-33.790;150.826;2022-11-11T04:24:24;4.43;;;1.02;;
57577;SDS011;43413;-33.790;150.826;2022-11-11T04:27:11;7.30;;;1.50;;
57577;SDS011;43413;-33.790;150.826;2022-11-11T04:29:41;3.38;;;1.45;;
57577;SDS011;43413;-33.790;150.826;2022-11-11T04:32:11;5.05;;;1.50;;
57577;SDS011;43413;-33.790;150.826;2022-11-11T04:34:58;3.53;;;1.23;;
57577;SDS011;43413;-33.790;150.826;2022-11-11T04:37:26;3.05;;;1.17;;
57577;SDS011;43413;-33.790;150.826;2022-11-11T04:39:53;2.40;;;1.15;;
57577;SDS011;43413;-33.790;150.826;2022-11-11T04:42:39;3.20;;;1.00;;
57577;SDS011;43413;-33.790;150.826;2022-11-11T04:45:06;3.22;;;1.63;;
57577;SDS011;43413;-33.790;150.826;2022-11-11T04:50:22;6.68;;;1.10;;
57577;SDS011;43413;-33.790;150.826;2022-11-11T04:52:50;4.97;;;1.00;;
57577;SDS011;43413;-33.790;150.826;2022-11-11T04:55:17;5.15;;;1.20;;
57577;SDS011;43413;-33.790;150.826;2022-11-11T04:58:02;5.72;;;1.38;;
57577;SDS011;43413;-33.790;150.826;2022-11-11T05:00:30;4.60;;;0.90;;
57577;SDS011;43413;-33.790;150.826;2022-11-11T05:02:57;3.05;;;0.93;;
57577;SDS011;43413;-33.790;150.826;2022-11-11T05:05:49;3.88;;;1.13;;
57577;SDS011;43413;-33.790;150.826;2022-11-11T05:08:36;3.42;;;1.00;;
57577;SDS011;43413;-33.790;150.826;2022-11-11T05:11:23;2.40;;;1.00;;
57577;SDS011;43413;-33.790;150.826;2022-11-11T05:13:51;3.72;;;1.17;;
57577;SDS011;43413;-33.790;150.826;2022-11-11T05:16:37;3.80;;;1.27;;
57577;SDS011;43413;-33.790;150.826;2022-11-11T05:19:24;2.22;;;1.20;;
57577;SDS011;43413;-33.790;150.826;2022-11-11T05:24:39;2.92;;;0.93;;
57577;SDS011;43413;-33.790;150.826;2022-11-11T05:27:24;3.60;;;1.08;;
57577;SDS011;43413;-33.790;150.826;2022-11-11T05:29:51;3.15;;;1.20;;
57577;SDS011;43413;-33.790;150.826;2022-11-11T05:32:19;1.88;;;0.80;;
57577;SDS011;43413;-33.790;150.826;2022-11-11T05:34:46;5.15;;;1.15;;
57577;SDS011;43413;-33.790;150.826;2022-11-11T05:37:14;2.92;;;1.00;;
57577;SDS011;43413;-33.790;150.826;2022-11-11T05:39:41;4.82;;;1.55;;
57577;SDS011;43413;-33.790;150.826;2022-11-11T05:42:08;6.63;;;1.38;;
57577;SDS011;43413;-33.790;150.826;2022-11-11T05:44:36;4.22;;;1.23;;
57577;SDS011;43413;-33.790;150.826;2022-11-11T05:47:03;2.38;;;1.00;;
57577;SDS011;43413;-33.790;150.826;2022-11-11T05:49:30;4.22;;;1.00;;
57577;SDS011;43413;-33.790;150.826;2022-11-11T05:51:58;3.42;;;1.10;;
57577;SDS011;43413;-33.790;150.826;2022-11-11T05:54:25;2.42;;;1.10;;
57577;SDS011;43413;-33.790;150.826;2022-11-11T05:56:52;4.13;;;1.20;;
57577;SDS011;43413;-33.790;150.826;2022-11-11T05:59:20;2.83;;;1.00;;
57577;SDS011;43413;-33.790;150.826;2022-11-11T06:01:47;4.65;;;1.10;;
57577;SDS011;43413;-33.790;150.826;2022-11-11T06:04:17;3.17;;;1.02;;
57577;SDS011;43413;-33.790;150.826;2022-11-11T06:06:47;4.60;;;1.10;;
57577;SDS011;43413;-33.790;150.826;2022-11-11T06:09:14;5.22;;;1.30;;
57577;SDS011;43413;-33.790;150.826;2022-11-11T06:11:41;2.15;;;1.00;;
57577;SDS011;43413;-33.790;150.826;2022-11-11T06:14:08;4.82;;;1.10;;
57577;SDS011;43413;-33.790;150.826;2022-11-11T06:16:36;3.85;;;1.00;;
57577;SDS011;43413;-33.790;150.826;2022-11-11T06:19:03;2.25;;;0.90;;
57577;SDS011;43413;-33.790;150.826;2022-11-11T06:21:30;2.00;;;0.90;;
57577;SDS011;43413;-33.790;150.826;2022-11-11T06:24:17;4.50;;;0.88;;
57577;SDS011;43413;-33.790;150.826;2022-11-11T06:26:44;1.58;;;0.70;;
57577;SDS011;43413;-33.790;150.826;2022-11-11T06:29:14;3.85;;;0.90;;
57577;SDS011;43413;-33.790;150.826;2022-11-11T06:31:42;2.65;;;0.90;;
57577;SDS011;43413;-33.790;150.826;2022-11-11T06:34:10;2.35;;;1.00;;
57577;SDS011;43413;-33.790;150.826;2022-11-11T06:36:37;2.80;;;0.93;;
57577;SDS011;43413;-33.790;150.826;2022-11-11T06:39:04;3.35;;;0.90;;
57577;SDS011;43413;-33.790;150.826;2022-11-11T06:41:31;2.35;;;0.88;;
57577;SDS011;43413;-33.790;150.826;2022-11-11T06:43:58;2.45;;;0.80;;
57577;SDS011;43413;-33.790;150.826;2022-11-11T06:46:26;2.45;;;0.98;;
57577;SDS011;43413;-33.790;150.826;2022-11-11T06:48:53;4.05;;;1.00;;
57577;SDS011;43413;-33.790;150.826;2022-11-11T06:51:21;3.63;;;0.73;;
57577;SDS011;43413;-33.790;150.826;2022-11-11T06:53:48;2.15;;;0.80;;
57577;SDS011;43413;-33.790;150.826;2022-11-11T06:56:15;2.40;;;0.90;;
57577;SDS011;43413;-33.790;150.826;2022-11-11T06:58:42;3.33;;;1.00;;
57577;SDS011;43413;-33.790;150.826;2022-11-11T07:01:10;2.22;;;0.82;;
57577;SDS011;43413;-33.790;150.826;2022-11-11T07:03:37;4.32;;;0.77;;
57577;SDS011;43413;-33.790;150.826;2022-11-11T07:06:05;2.10;;;1.25;;
57577;SDS011;43413;-33.790;150.826;2022-11-11T07:08:32;2.83;;;0.85;;
57577;SDS011;43413;-33.790;150.826;2022-11-11T07:10:59;2.30;;;0.80;;
57577;SDS011;43413;-33.790;150.826;2022-11-11T07:13:27;2.75;;;0.93;;
57577;SDS011;43413;-33.790;150.826;2022-11-11T07:15:54;2.72;;;0.90;;
57577;SDS011;43413;-33.790;150.826;2022-11-11T07:18:21;2.50;;;0.75;;
57577;SDS011;43413;-33.790;150.826;2022-11-11T07:20:48;5.65;;;0.90;;
57577;SDS011;43413;-33.790;150.826;2022-11-11T07:23:15;5.25;;;1.00;;
57577;SDS011;43413;-33.790;150.826;2022-11-11T07:25:42;3.97;;;1.25;;
57577;SDS011;43413;-33.790;150.826;2022-11-11T07:28:10;2.47;;;1.08;;
57577;SDS011;43413;-33.790;150.826;2022-11-11T07:30:37;1.63;;;0.90;;
57577;SDS011;43413;-33.790;150.826;2022-11-11T07:33:04;3.35;;;0.90;;
57577;SDS011;43413;-33.790;150.826;2022-11-11T07:35:31;3.17;;;1.00;;
57577;SDS011;43413;-33.790;150.826;2022-11-11T07:37:59;4.03;;;1.00;;
57577;SDS011;43413;-33.790;150.826;2022-11-11T07:40:29;3.30;;;1.08;;
57577;SDS011;43413;-33.790;150.826;2022-11-11T07:42:56;2.53;;;0.82;;
57577;SDS011;43413;-33.790;150.826;2022-11-11T07:45:23;2.78;;;0.95;;
57577;SDS011;43413;-33.790;150.826;2022-11-11T07:47:51;2.80;;;0.77;;
57577;SDS011;43413;-33.790;150.826;2022-11-11T07:50:18;3.50;;;1.00;;
57577;SDS011;43413;-33.790;150.826;2022-11-11T07:52:48;3.05;;;1.20;;
57577;SDS011;43413;-33.790;150.826;2022-11-11T07:55:16;2.05;;;0.90;;
57577;SDS011;43413;-33.790;150.826;2022-11-11T07:57:44;4.55;;;1.30;;
57577;SDS011;43413;-33.790;150.826;2022-11-11T08:00:11;3.28;;;1.00;;
57577;SDS011;43413;-33.790;150.826;2022-11-11T08:02:38;1.67;;;1.00;;
57577;SDS011;43413;-33.790;150.826;2022-11-11T08:05:09;6.20;;;1.33;;
57577;SDS011;43413;-33.790;150.826;2022-11-11T08:07:36;3.38;;;1.30;;
57577;SDS011;43413;-33.790;150.826;2022-11-11T08:10:04;3.63;;;2.00;;
57577;SDS011;43413;-33.790;150.826;2022-11-11T08:12:31;4.53;;;1.88;;
57577;SDS011;43413;-33.790;150.826;2022-11-11T08:15:16;4.40;;;1.92;;
57577;SDS011;43413;-33.790;150.826;2022-11-11T08:17:43;3.08;;;1.70;;
57577;SDS011;43413;-33.790;150.826;2022-11-11T08:20:11;4.40;;;1.25;;
57577;SDS011;43413;-33.790;150.826;2022-11-11T08:22:38;2.25;;;1.23;;
57577;SDS011;43413;-33.790;150.826;2022-11-11T08:25:07;3.17;;;1.30;;
57577;SDS011;43413;-33.790;150.826;2022-11-11T08:27:35;3.58;;;1.20;;
57577;SDS011;43413;-33.790;150.826;2022-11-11T08:30:02;5.38;;;1.25;;
57577;SDS011;43413;-33.790;150.826;2022-11-11T08:32:30;6.20;;;1.17;;
57577;SDS011;43413;-33.790;150.826;2022-11-11T08:34:57;4.20;;;1.50;;
57577;SDS011;43413;-33.790;150.826;2022-11-11T08:37:24;3.97;;;1.40;;
57577;SDS011;43413;-33.790;150.826;2022-11-11T08:39:55;3.03;;;1.30;;
57577;SDS011;43413;-33.790;150.826;2022-11-11T08:42:22;5.10;;;1.52;;
57577;SDS011;43413;-33.790;150.826;2022-11-11T08:44:52;3.50;;;1.50;;
57577;SDS011;43413;-33.790;150.826;2022-11-11T08:47:20;3.10;;;1.40;;
57577;SDS011;43413;-33.790;150.826;2022-11-11T08:49:49;3.67;;;1.52;;
57577;SDS011;43413;-33.790;150.826;2022-11-11T08:52:16;1.52;;;1.00;;
57577;SDS011;43413;-33.790;150.826;2022-11-11T08:54:43;3.15;;;1.42;;
57577;SDS011;43413;-33.790;150.826;2022-11-11T08:57:10;3.17;;;1.40;;
57577;SDS011;43413;-33.790;150.826;2022-11-11T08:59:38;5.75;;;1.50;;
57577;SDS011;43413;-33.790;150.826;2022-11-11T09:02:05;3.03;;;1.40;;
57577;SDS011;43413;-33.790;150.826;2022-11-11T09:04:32;4.93;;;1.35;;
57577;SDS011;43413;-33.790;150.826;2022-11-11T09:07:00;5.32;;;1.50;;
57577;SDS011;43413;-33.790;150.826;2022-11-11T09:09:30;3.67;;;1.50;;
57577;SDS011;43413;-33.790;150.826;2022-11-11T09:11:57;3.20;;;1.45;;
57577;SDS011;43413;-33.790;150.826;2022-11-11T09:14:24;4.60;;;1.23;;
57577;SDS011;43413;-33.790;150.826;2022-11-11T09:16:51;3.03;;;1.20;;
57577;SDS011;43413;-33.790;150.826;2022-11-11T09:19:18;3.65;;;1.60;;
57577;SDS011;43413;-33.790;150.826;2022-11-11T09:21:45;5.00;;;1.67;;
57577;SDS011;43413;-33.790;150.826;2022-11-11T09:24:13;5.03;;;1.80;;
57577;SDS011;43413;-33.790;150.826;2022-11-11T09:26:40;3.65;;;1.65;;
57577;SDS011;43413;-33.790;150.826;2022-11-11T09:29:09;3.95;;;1.92;;
57577;SDS011;43413;-33.790;150.826;2022-11-11T09:31:36;2.92;;;1.63;;
57577;SDS011;43413;-33.790;150.826;2022-11-11T09:34:03;2.70;;;1.55;;
57577;SDS011;43413;-33.790;150.826;2022-11-11T09:36:31;4.43;;;1.90;;
57577;SDS011;43413;-33.790;150.826;2022-11-11T09:38:58;5.35;;;1.83;;
57577;SDS011;43413;-33.790;150.826;2022-11-11T09:43:58;6.13;;;1.88;;
57577;SDS011;43413;-33.790;150.826;2022-11-11T09:57:16;4.63;;;1.70;;
57577;SDS011;43413;-33.790;150.826;2022-11-11T09:59:48;7.95;;;2.20;;
57577;SDS011;43413;-33.790;150.826;2022-11-11T10:02:25;4.10;;;2.00;;
57577;SDS011;43413;-33.790;150.826;2022-11-11T10:05:04;6.60;;;2.08;;
57577;SDS011;43413;-33.790;150.826;2022-11-11T10:07:35;3.17;;;1.95;;
57577;SDS011;43413;-33.790;150.826;2022-11-11T10:10:21;7.20;;;2.28;;
57577;SDS011;43413;-33.790;150.826;2022-11-11T10:12:54;6.72;;;2.30;;
57577;SDS011;43413;-33.790;150.826;2022-11-11T10:15:23;7.30;;;2.20;;
57577;SDS011;43413;-33.790;150.826;2022-11-11T10:17:55;6.35;;;2.33;;
57577;SDS011;43413;-33.790;150.826;2022-11-11T10:20:32;4.53;;;2.35;;
57577;SDS011;43413;-33.790;150.826;2022-11-11T10:23:16;5.03;;;1.92;;
57577;SDS011;43413;-33.790;150.826;2022-11-11T10:25:53;4.57;;;1.90;;
57577;SDS011;43413;-33.790;150.826;2022-11-11T10:28:22;4.03;;;1.48;;
57577;SDS011;43413;-33.790;150.826;2022-11-11T10:30:50;10.00;;;2.00;;
57577;SDS011;43413;-33.790;150.826;2022-11-11T10:33:19;6.57;;;1.90;;
57577;SDS011;43413;-33.790;150.826;2022-11-11T10:35:48;4.18;;;2.03;;
57577;SDS011;43413;-33.790;150.826;2022-11-11T10:38:20;3.92;;;1.75;;
57577;SDS011;43413;-33.790;150.826;2022-11-11T10:40:52;4.03;;;1.55;;
57577;SDS011;43413;-33.790;150.826;2022-11-11T10:43:24;3.65;;;1.70;;
57577;SDS011;43413;-33.790;150.826;2022-11-11T10:48:37;6.03;;;1.42;;
57577;SDS011;43413;-33.790;150.826;2022-11-11T10:51:07;5.22;;;1.52;;
57577;SDS011;43413;-33.790;150.826;2022-11-11T10:58:51;4.25;;;1.55;;
57577;SDS011;43413;-33.790;150.826;2022-11-11T11:01:31;3.00;;;1.50;;
57577;SDS011;43413;-33.790;150.826;2022-11-11T11:04:01;4.70;;;1.60;;
57577;SDS011;43413;-33.790;150.826;2022-11-11T11:06:33;4.35;;;1.77;;
57577;SDS011;43413;-33.790;150.826;2022-11-11T11:09:18;4.95;;;1.80;;
57577;SDS011;43413;-33.790;150.826;2022-11-11T11:11:53;3.53;;;2.03;;
57577;SDS011;43413;-33.790;150.826;2022-11-11T11:14:24;2.70;;;2.05;;
57577;SDS011;43413;-33.790;150.826;2022-11-11T11:16:54;4.65;;;1.88;;
57577;SDS011;43413;-33.790;150.826;2022-11-11T11:19:28;3.90;;;2.08;;
57577;SDS011;43413;-33.790;150.826;2022-11-11T11:21:57;4.95;;;2.03;;
57577;SDS011;43413;-33.790;150.826;2022-11-11T11:24:25;4.30;;;2.10;;
57577;SDS011;43413;-33.790;150.826;2022-11-11T11:26:54;3.80;;;2.10;;
57577;SDS011;43413;-33.790;150.826;2022-11-11T11:29:35;6.28;;;1.90;;
57577;SDS011;43413;-33.790;150.826;2022-11-11T11:32:15;4.45;;;1.77;;
57577;SDS011;43413;-33.790;150.826;2022-11-11T11:34:44;5.25;;;2.10;;
57577;SDS011;43413;-33.790;150.826;2022-11-11T11:37:12;3.75;;;1.50;;
57577;SDS011;43413;-33.790;150.826;2022-11-11T11:39:39;2.88;;;1.42;;
57577;SDS011;43413;-33.790;150.826;2022-11-11T11:42:07;3.58;;;1.73;;
57577;SDS011;43413;-33.790;150.826;2022-11-11T11:44:35;5.10;;;1.50;;
57577;SDS011;43413;-33.790;150.826;2022-11-11T11:54:57;4.45;;;1.60;;
57577;SDS011;43413;-33.790;150.826;2022-11-11T12:03:07;2.40;;;1.50;;
57577;SDS011;43413;-33.790;150.826;2022-11-11T12:05:48;2.53;;;1.52;;
57577;SDS011;43413;-33.790;150.826;2022-11-11T12:11:19;4.32;;;1.70;;
57577;SDS011;43413;-33.790;150.826;2022-11-11T12:13:56;2.15;;;1.70;;
